createdAt,value
2023-03-08T00:00:01.693Z,11.10
2023-03-08T00:03:08.384Z,9.90
2023-03-08T00:05:46.732Z,7.90
2023-03-08T00:08:28.694Z,10.90
2023-03-08T00:11:06.825Z,9.30
2023-03-08T00:13:46.468Z,10.70
2023-03-08T00:16:16.293Z,7.50
2023-03-08T00:18:45.222Z,8.50
2023-03-08T00:21:18.908Z,7.60
2023-03-08T00:23:54.785Z,7.10
2023-03-08T00:26:32.429Z,7.50
2023-03-08T00:29:04.779Z,8.20
2023-03-08T00:31:36.674Z,7.30
2023-03-08T00:34:10.959Z,9.10
2023-03-08T00:36:45.176Z,10.00
2023-03-08T00:39:19.757Z,8.70
2023-03-08T00:41:58.551Z,10.10
2023-03-08T00:44:32.441Z,9.30
2023-03-08T00:47:05.614Z,7.60
2023-03-08T00:49:39.421Z,10.40
2023-03-08T00:52:09.110Z,7.90
2023-03-08T00:54:41.414Z,11.40
2023-03-08T00:57:17.923Z,11.00
2023-03-08T00:59:51.784Z,10.10
2023-03-08T01:02:28.564Z,9.00
2023-03-08T01:05:00.390Z,11.10
2023-03-08T01:07:38.300Z,9.60
2023-03-08T01:10:10.381Z,6.30
2023-03-08T01:12:45.611Z,6.40
2023-03-08T01:15:21.205Z,5.80
2023-03-08T01:17:58.164Z,8.00
2023-03-08T01:20:31.862Z,9.00
2023-03-08T01:23:06.893Z,8.20
2023-03-08T01:25:43.017Z,8.60
2023-03-08T01:28:17.233Z,7.40
2023-03-08T01:30:51.319Z,7.00
2023-03-08T01:33:31.194Z,8.60
2023-03-08T01:36:08.152Z,6.50
2023-03-08T01:38:40.215Z,7.60
2023-03-08T01:41:36.544Z,6.70
2023-03-08T01:44:27.488Z,4.90
2023-03-08T01:46:56.610Z,8.90
2023-03-08T01:49:38.526Z,5.50
2023-03-08T01:52:33.834Z,7.50
2023-03-08T01:55:14.728Z,9.50
2023-03-08T01:57:55.099Z,6.60
2023-03-08T02:00:32.004Z,7.30
2023-03-08T02:03:07.695Z,7.20
2023-03-08T02:05:47.712Z,6.60
2023-03-08T02:11:02.612Z,6.90
2023-03-08T02:13:34.461Z,8.50
2023-03-08T02:16:10.020Z,8.10
2023-03-08T02:19:05.345Z,7.20
2023-03-08T02:21:37.226Z,8.80
2023-03-08T02:24:24.927Z,8.90
2023-03-08T02:27:15.108Z,8.90
2023-03-08T02:29:48.851Z,8.40
2023-03-08T02:32:25.411Z,9.50
2023-03-08T02:34:57.219Z,12.30
2023-03-08T02:37:26.770Z,8.90
2023-03-08T02:39:59.939Z,10.20
2023-03-08T02:42:31.478Z,13.00
2023-03-08T02:45:02.385Z,10.40
2023-03-08T02:47:34.972Z,11.10
2023-03-08T02:50:06.717Z,9.70
2023-03-08T02:52:43.321Z,9.60
2023-03-08T02:55:15.639Z,11.90
2023-03-08T02:57:48.929Z,11.40
2023-03-08T03:00:22.540Z,9.90
2023-03-08T03:02:51.213Z,9.80
2023-03-08T03:05:24.063Z,10.60
2023-03-08T03:07:55.209Z,9.30
2023-03-08T03:10:30.663Z,12.00
2023-03-08T03:12:59.885Z,14.80
2023-03-08T03:15:35.688Z,8.80
2023-03-08T03:18:05.743Z,9.70
2023-03-08T03:20:34.889Z,10.20
2023-03-08T03:23:08.245Z,8.40
2023-03-08T03:25:48.830Z,9.20
2023-03-08T03:28:27.867Z,20.80
2023-03-08T03:30:59.877Z,12.10
2023-03-08T03:33:39.172Z,9.70
2023-03-08T03:36:16.698Z,10.20
2023-03-08T03:38:51.514Z,15.80
2023-03-08T03:41:38.829Z,9.30
2023-03-08T03:44:11.789Z,7.50
2023-03-08T03:49:13.632Z,11.50
2023-03-08T03:51:50.092Z,9.10
2023-03-08T03:54:24.059Z,7.90
2023-03-08T03:56:53.074Z,8.80
2023-03-08T03:59:27.007Z,10.50
2023-03-08T04:01:57.892Z,7.70
2023-03-08T04:04:35.794Z,9.30
2023-03-08T04:07:05.200Z,9.70
2023-03-08T04:09:38.457Z,8.60
2023-03-08T04:12:29.512Z,10.60
2023-03-08T04:15:09.997Z,7.10
2023-03-08T04:17:47.844Z,7.50
2023-03-08T04:20:23.824Z,11.20
2023-03-08T04:22:56.773Z,8.20
2023-03-08T04:25:41.772Z,8.80
2023-03-08T04:28:16.577Z,7.60
2023-03-08T04:30:48.433Z,10.80
2023-03-08T04:33:18.541Z,12.50
2023-03-08T04:36:04.942Z,11.20
2023-03-08T04:38:37.138Z,9.50
2023-03-08T04:41:17.982Z,12.00
2023-03-08T04:44:08.408Z,12.00
2023-03-08T04:46:44.181Z,10.90
2023-03-08T04:49:16.290Z,12.80
2023-03-08T04:51:51.870Z,14.50
2023-03-08T04:54:26.197Z,22.40
2023-03-08T04:57:03.583Z,13.40
2023-03-08T04:59:41.119Z,11.80
2023-03-08T05:02:15.305Z,11.90
2023-03-08T05:04:48.482Z,12.40
2023-03-08T05:07:17.454Z,15.90
2023-03-08T05:09:54.921Z,11.40
2023-03-08T05:15:12.199Z,10.70
2023-03-08T05:17:47.349Z,11.10
2023-03-08T05:22:58.693Z,11.90
2023-03-08T05:25:43.294Z,12.50
2023-03-08T05:28:19.986Z,10.90
2023-03-08T05:33:53.172Z,10.50
2023-03-08T05:36:30.830Z,9.90
2023-03-08T05:39:06.026Z,13.30
2023-03-08T05:42:06.538Z,14.20
2023-03-08T05:44:49.737Z,12.80
2023-03-08T05:47:28.367Z,17.90
2023-03-08T05:49:59.741Z,13.90
2023-03-08T05:52:34.439Z,14.90
2023-03-08T05:55:04.187Z,12.90
2023-03-08T05:57:36.931Z,14.60
2023-03-08T06:00:08.665Z,17.20
2023-03-08T06:02:47.284Z,17.70
2023-03-08T06:05:16.980Z,15.60
2023-03-08T06:07:54.843Z,19.10
2023-03-08T06:10:25.070Z,15.20
2023-03-08T06:13:04.418Z,16.30
2023-03-08T06:15:44.292Z,15.50
2023-03-08T06:18:19.170Z,14.50
2023-03-08T06:21:04.866Z,15.50
2023-03-08T06:23:36.148Z,13.20
2023-03-08T06:26:07.491Z,15.00
2023-03-08T06:28:39.868Z,19.80
2023-03-08T06:31:17.998Z,15.40
2023-03-08T06:33:58.093Z,16.10
2023-03-08T06:36:30.384Z,14.70
2023-03-08T06:39:07.128Z,17.10
2023-03-08T06:41:40.614Z,14.50
2023-03-08T06:44:09.982Z,16.60
2023-03-08T06:46:42.522Z,15.30
2023-03-08T06:49:15.188Z,17.90
2023-03-08T06:51:49.038Z,16.60
2023-03-08T06:54:21.896Z,14.50
2023-03-08T06:56:51.401Z,15.60
2023-03-08T06:59:22.352Z,16.30
2023-03-08T07:01:52.392Z,15.10
2023-03-08T07:04:24.619Z,14.70
2023-03-08T07:07:01.839Z,13.60
2023-03-08T07:09:39.913Z,13.70
2023-03-08T07:12:09.762Z,14.30
2023-03-08T07:14:43.980Z,16.20
2023-03-08T07:17:19.666Z,16.30
2023-03-08T07:19:56.572Z,23.80
2023-03-08T07:22:30.313Z,24.50
2023-03-08T07:25:02.300Z,20.50
2023-03-08T07:27:37.094Z,19.90
2023-03-08T07:30:18.169Z,14.80
2023-03-08T07:32:54.879Z,12.70
2023-03-08T07:35:39.875Z,12.20
2023-03-08T07:38:25.099Z,12.90
2023-03-08T07:41:00.334Z,15.80
2023-03-08T07:43:35.843Z,14.10
2023-03-08T07:46:15.535Z,15.50
2023-03-08T07:48:48.193Z,17.70
2023-03-08T07:51:28.404Z,17.10
2023-03-08T07:53:58.707Z,16.30
2023-03-08T07:56:36.698Z,16.20
2023-03-08T07:59:06.960Z,25.60
2023-03-08T08:01:37.529Z,15.10
2023-03-08T08:04:12.874Z,22.20
2023-03-08T08:09:31.903Z,17.80
2023-03-08T08:12:05.044Z,18.40
2023-03-08T08:14:36.971Z,16.80
2023-03-08T08:17:11.339Z,13.50
2023-03-08T08:20:05.400Z,12.00
2023-03-08T08:22:38.221Z,11.60
2023-03-08T08:25:14.275Z,12.40
2023-03-08T08:27:56.327Z,14.00
2023-03-08T08:30:25.444Z,15.60
2023-03-08T08:32:54.156Z,13.70
2023-03-08T08:35:28.917Z,16.20
2023-03-08T08:38:15.430Z,19.30
2023-03-08T08:41:01.135Z,13.80
2023-03-08T08:43:37.082Z,14.30
2023-03-08T08:46:06.501Z,15.90
2023-03-08T08:48:37.087Z,13.20
2023-03-08T08:51:07.921Z,22.10
2023-03-08T08:53:36.760Z,26.10
2023-03-08T08:56:26.297Z,14.90
2023-03-08T08:59:00.093Z,9.90
2023-03-08T09:04:00.648Z,11.10
2023-03-08T09:06:29.467Z,10.00
2023-03-08T09:08:59.893Z,8.20
2023-03-08T09:11:32.753Z,14.30
2023-03-08T09:14:04.135Z,17.50
2023-03-08T09:16:44.799Z,14.10
2023-03-08T09:19:15.680Z,20.00
2023-03-08T09:21:44.834Z,25.40
2023-03-08T09:24:16.814Z,27.10
2023-03-08T09:26:49.994Z,13.00
2023-03-08T09:29:21.570Z,15.70
2023-03-08T09:31:58.704Z,22.80
2023-03-08T09:34:38.423Z,22.40
2023-03-08T09:37:08.180Z,11.30
2023-03-08T09:39:42.259Z,25.70
2023-03-08T09:42:41.855Z,24.10
2023-03-08T09:45:31.300Z,14.30
2023-03-08T09:48:30.258Z,11.60
2023-03-08T09:51:11.492Z,9.60
2023-03-08T09:53:57.587Z,10.50
2023-03-08T09:56:57.015Z,14.40
2023-03-08T10:00:03.373Z,12.00
2023-03-08T10:03:03.654Z,11.80
2023-03-08T10:06:00.998Z,21.30
2023-03-08T10:09:28.769Z,15.50
2023-03-08T10:12:35.811Z,19.50
2023-03-08T10:15:18.268Z,17.50
2023-03-08T10:18:35.054Z,32.50
2023-03-08T10:21:09.890Z,12.40
2023-03-08T10:23:41.005Z,12.70
2023-03-08T10:26:16.741Z,18.10
2023-03-08T10:28:44.628Z,17.90
2023-03-08T10:31:33.310Z,13.20
2023-03-08T10:34:29.508Z,17.30
2023-03-08T10:37:07.584Z,14.40
2023-03-08T10:39:39.747Z,8.50
2023-03-08T10:42:21.430Z,11.20
2023-03-08T10:45:22.280Z,11.30
2023-03-08T10:48:20.510Z,14.40
2023-03-08T10:51:04.392Z,10.90
2023-03-08T10:53:42.640Z,16.00
2023-03-08T10:56:45.843Z,16.10
2023-03-08T10:59:37.769Z,10.60
2023-03-08T11:02:12.940Z,12.10
2023-03-08T11:05:00.038Z,10.10
2023-03-08T11:07:33.472Z,7.80
2023-03-08T11:10:29.422Z,12.60
2023-03-08T11:13:41.434Z,10.40
2023-03-08T11:16:43.114Z,8.00
2023-03-08T11:19:43.703Z,12.20
2023-03-08T11:22:52.499Z,12.40
2023-03-08T11:25:46.276Z,12.70
2023-03-08T11:28:43.009Z,28.70
2023-03-08T11:31:53.059Z,23.00
2023-03-08T11:35:10.960Z,15.00
2023-03-08T11:38:21.630Z,21.00
2023-03-08T11:43:54.974Z,17.00
2023-03-08T11:47:31.143Z,15.90
2023-03-08T11:50:37.873Z,21.50
2023-03-08T11:53:46.893Z,24.10
2023-03-08T11:57:07.982Z,15.70
2023-03-08T12:00:00.477Z,17.60
2023-03-08T12:02:51.501Z,16.80
2023-03-08T12:05:52.483Z,14.50
2023-03-08T12:08:56.108Z,24.60
2023-03-08T12:12:16.582Z,28.60
2023-03-08T12:15:45.371Z,27.40
2023-03-08T12:19:18.559Z,24.50
2023-03-08T12:22:53.600Z,20.60
2023-03-08T12:25:54.294Z,14.50
2023-03-08T12:28:45.692Z,18.70
2023-03-08T12:31:33.179Z,15.10
2023-03-08T12:34:40.784Z,19.70
2023-03-08T12:37:27.764Z,15.00
2023-03-08T12:40:40.611Z,16.60
2023-03-08T12:43:19.428Z,12.60
2023-03-08T12:46:07.424Z,12.10
2023-03-08T12:48:44.848Z,12.10
2023-03-08T12:51:34.402Z,13.20
2023-03-08T12:56:57.304Z,15.60
2023-03-08T12:59:40.935Z,16.90
2023-03-08T13:02:34.691Z,25.50
2023-03-08T13:05:36.580Z,16.60
2023-03-08T13:08:53.039Z,13.90
2023-03-08T13:11:26.090Z,13.90
2023-03-08T13:14:01.204Z,11.60
2023-03-08T13:16:39.923Z,14.40
2023-03-08T13:19:23.830Z,12.90
2023-03-08T13:22:14.360Z,13.30
2023-03-08T13:24:59.907Z,31.20
2023-03-08T13:27:58.518Z,18.00
2023-03-08T13:30:49.281Z,18.30
2023-03-08T13:33:41.129Z,15.30
2023-03-08T13:36:27.395Z,15.00
2023-03-08T13:39:17.953Z,14.50
2023-03-08T13:42:08.040Z,12.60
2023-03-08T13:44:49.293Z,13.50
2023-03-08T13:47:38.750Z,15.50
2023-03-08T13:50:16.945Z,17.00
2023-03-08T13:52:49.733Z,14.70
2023-03-08T13:55:28.065Z,16.10
2023-03-08T13:58:01.604Z,13.80
2023-03-08T14:00:35.901Z,23.30
2023-03-08T14:03:19.018Z,17.90
2023-03-08T14:05:52.550Z,19.10
2023-03-08T14:08:27.727Z,25.50
2023-03-08T14:11:05.328Z,27.90
2023-03-08T14:13:42.233Z,25.90
2023-03-08T14:16:25.289Z,26.80
2023-03-08T14:19:00.350Z,21.80
2023-03-08T14:21:36.565Z,27.20
2023-03-08T14:24:22.101Z,20.50
2023-03-08T14:27:19.068Z,26.00
2023-03-08T14:30:24.504Z,25.20
2023-03-08T14:33:04.095Z,26.60
2023-03-08T14:35:48.218Z,24.10
2023-03-08T14:38:27.455Z,26.60
2023-03-08T14:41:06.283Z,30.90
2023-03-08T14:43:36.664Z,39.10
2023-03-08T14:46:10.841Z,44.60
2023-03-08T14:48:39.644Z,37.30
2023-03-08T14:51:19.747Z,26.20
2023-03-08T14:54:22.862Z,23.80
2023-03-08T14:56:55.271Z,28.00
2023-03-08T14:59:28.080Z,28.50
2023-03-08T15:02:03.419Z,28.00
2023-03-08T15:07:26.913Z,33.20
2023-03-08T15:10:18.820Z,30.50
2023-03-08T15:13:22.403Z,30.10
2023-03-08T15:15:59.819Z,28.30
2023-03-08T15:18:35.755Z,34.10
2023-03-08T15:21:22.242Z,30.70
2023-03-08T15:24:35.483Z,29.50
2023-03-08T15:27:13.276Z,33.60
2023-03-08T15:29:46.690Z,36.00
2023-03-08T15:32:30.922Z,30.80
2023-03-08T15:35:08.944Z,34.60
2023-03-08T15:37:45.156Z,38.70
2023-03-08T15:40:20.998Z,36.00
2023-03-08T15:42:56.760Z,43.70
2023-03-08T15:45:26.641Z,45.10
2023-03-08T15:48:01.533Z,43.80
2023-03-08T15:50:34.483Z,42.80
2023-03-08T15:53:07.388Z,43.80
2023-03-08T15:55:40.379Z,59.90
2023-03-08T15:58:11.137Z,39.40
2023-03-08T16:00:43.190Z,61.20
2023-03-08T16:03:31.062Z,48.10
2023-03-08T16:06:04.732Z,52.80
2023-03-08T16:08:39.230Z,41.50
2023-03-08T16:11:19.187Z,33.20
2023-03-08T16:13:59.349Z,29.20
2023-03-08T16:16:44.277Z,31.20
2023-03-08T16:19:22.380Z,38.20
2023-03-08T16:21:53.624Z,38.80
2023-03-08T16:24:33.971Z,38.10
2023-03-08T16:27:06.339Z,37.70
2023-03-08T16:29:38.810Z,35.70
2023-03-08T16:32:18.652Z,37.30
2023-03-08T16:37:30.721Z,38.50
2023-03-08T16:40:14.878Z,46.20
2023-03-08T16:42:49.789Z,49.30
2023-03-08T16:45:27.612Z,57.00
2023-03-08T16:48:04.752Z,52.20
2023-03-08T16:50:38.436Z,53.50
2023-03-08T16:53:15.330Z,63.00
2023-03-08T16:55:45.870Z,55.40
2023-03-08T16:58:20.642Z,72.00
2023-03-08T17:00:57.517Z,73.60
2023-03-08T17:03:31.353Z,68.90
2023-03-08T17:06:13.095Z,63.70
2023-03-08T17:08:45.792Z,93.50
2023-03-08T17:11:19.575Z,69.60
2023-03-08T17:14:03.221Z,78.00
2023-03-08T17:16:42.169Z,75.70
2023-03-08T17:19:17.090Z,69.80
2023-03-08T17:21:52.936Z,68.80
2023-03-08T17:24:22.372Z,68.40
2023-03-08T17:26:54.726Z,67.90
2023-03-08T17:29:29.497Z,69.60
2023-03-08T17:32:11.383Z,72.10
2023-03-08T17:34:50.057Z,73.10
2023-03-08T17:37:36.629Z,75.60
2023-03-08T17:40:30.131Z,74.60
2023-03-08T17:43:22.392Z,78.30
2023-03-08T17:46:29.862Z,81.10
2023-03-08T17:49:25.409Z,80.70
2023-03-08T17:52:06.952Z,82.70
2023-03-08T17:54:46.170Z,78.30
2023-03-08T17:57:21.753Z,81.70
2023-03-08T17:59:58.094Z,80.50
2023-03-08T18:02:58.563Z,79.80
2023-03-08T18:05:53.410Z,78.80
2023-03-08T18:08:41.476Z,83.40
2023-03-08T18:11:11.834Z,87.30
2023-03-08T18:13:41.499Z,94.10
2023-03-08T18:16:15.667Z,89.60
2023-03-08T18:18:56.512Z,87.80
2023-03-08T18:21:29.897Z,91.80
2023-03-08T18:23:59.723Z,83.20
2023-03-08T18:26:45.070Z,87.00
2023-03-08T18:29:29.891Z,95.40
2023-03-08T18:32:10.109Z,99.00
2023-03-08T18:34:47.680Z,99.30
2023-03-08T18:37:49.219Z,93.50
2023-03-08T18:40:46.559Z,91.80
2023-03-08T18:43:30.287Z,89.00
2023-03-08T18:46:14.346Z,77.40
2023-03-08T18:49:10.104Z,78.10
2023-03-08T18:51:59.179Z,88.00
2023-03-08T18:54:44.590Z,85.00
2023-03-08T18:57:23.872Z,85.40
2023-03-08T19:00:18.788Z,80.10
2023-03-08T19:02:55.956Z,82.10
2023-03-08T19:06:01.299Z,90.50
2023-03-08T19:09:02.776Z,84.70
2023-03-08T19:11:43.849Z,83.10
2023-03-08T19:14:27.950Z,89.10
2023-03-08T19:17:16.955Z,83.40
2023-03-08T19:20:18.218Z,92.00
2023-03-08T19:27:01.516Z,74.30
2023-03-08T19:30:08.226Z,68.30
2023-03-08T19:33:29.733Z,65.90
2023-03-08T19:36:25.997Z,60.30
2023-03-08T19:38:58.981Z,58.30
2023-03-08T19:41:39.545Z,64.80
2023-03-08T19:44:45.538Z,63.70
2023-03-08T19:47:21.393Z,60.90
2023-03-08T19:50:10.044Z,61.20
2023-03-08T19:53:03.177Z,57.80
2023-03-08T19:55:59.915Z,59.90
2023-03-08T19:58:55.308Z,70.30
2023-03-08T20:01:38.908Z,69.50
2023-03-08T20:04:49.125Z,64.70
2023-03-08T20:07:42.706Z,61.40
2023-03-08T20:10:34.008Z,57.40
2023-03-08T20:13:10.673Z,60.00
2023-03-08T20:15:42.618Z,55.10
2023-03-08T20:18:56.552Z,55.70
2023-03-08T20:21:49.630Z,52.20
2023-03-08T20:24:36.808Z,50.60
2023-03-08T20:27:25.815Z,45.60
2023-03-08T20:29:58.026Z,46.50
2023-03-08T20:32:30.972Z,41.40
2023-03-08T20:35:01.634Z,46.70
2023-03-08T20:37:36.714Z,46.90
2023-03-08T20:40:08.939Z,45.40
2023-03-08T20:42:46.684Z,43.10
2023-03-08T20:45:23.665Z,44.30
2023-03-08T20:47:57.361Z,42.30
2023-03-08T20:51:02.599Z,40.80
2023-03-08T20:53:33.378Z,43.20
2023-03-08T20:56:16.367Z,44.40
2023-03-08T20:59:06.319Z,46.20
2023-03-08T21:01:38.475Z,45.10
2023-03-08T21:04:15.085Z,42.20
2023-03-08T21:06:59.796Z,42.20
2023-03-08T21:09:43.526Z,50.20
2023-03-08T21:12:25.834Z,53.10
2023-03-08T21:14:59.750Z,61.30
2023-03-08T21:17:41.297Z,61.70
2023-03-08T21:20:21.668Z,65.80
2023-03-08T21:23:16.158Z,56.30
2023-03-08T21:35:28.796Z,51.40
2023-03-08T21:38:09.753Z,49.00
2023-03-08T21:41:14.600Z,43.00
2023-03-08T21:44:09.204Z,52.40
2023-03-08T21:47:05.998Z,47.70
2023-03-08T21:49:56.121Z,45.70
2023-03-08T21:52:41.201Z,46.70
2023-03-08T21:55:21.588Z,43.30
2023-03-08T21:58:05.213Z,44.30
2023-03-08T22:00:51.059Z,53.50
2023-03-08T22:03:33.065Z,55.50
2023-03-08T22:06:19.395Z,49.60
2023-03-08T22:09:07.875Z,45.50
2023-03-08T22:11:43.756Z,48.90
2023-03-08T22:14:18.711Z,45.90
2023-03-08T22:16:52.164Z,43.50
2023-03-08T22:19:34.076Z,43.80
2023-03-08T22:22:10.778Z,47.00
2023-03-08T22:24:51.280Z,50.70
2023-03-08T22:27:33.945Z,45.40
2023-03-08T22:30:18.818Z,47.70
2023-03-08T22:33:03.186Z,43.00
2023-03-08T22:35:32.400Z,48.70
2023-03-08T22:38:01.312Z,45.00
2023-03-08T22:40:44.494Z,43.70
2023-03-08T22:43:28.285Z,40.00
2023-03-08T22:46:15.385Z,40.80
2023-03-08T22:48:55.313Z,40.50
2023-03-08T22:51:59.943Z,39.60
2023-03-08T22:54:34.490Z,37.50
2023-03-08T22:57:25.581Z,32.40
2023-03-08T23:00:14.000Z,33.20
2023-03-08T23:02:50.165Z,31.90
2023-03-08T23:05:27.903Z,34.60
2023-03-08T23:08:02.303Z,37.00
2023-03-08T23:10:35.465Z,34.90
2023-03-08T23:13:07.058Z,35.40
2023-03-08T23:15:39.029Z,37.90
2023-03-08T23:18:13.508Z,37.30
2023-03-08T23:20:45.625Z,34.50
2023-03-08T23:23:14.672Z,37.00
2023-03-08T23:25:48.653Z,40.10
2023-03-08T23:28:23.512Z,41.90
2023-03-08T23:30:57.283Z,37.80
2023-03-08T23:33:34.914Z,38.40
2023-03-08T23:36:07.594Z,38.60
2023-03-08T23:38:41.638Z,38.80
2023-03-08T23:41:25.706Z,38.70
2023-03-08T23:44:01.154Z,40.10
2023-03-08T23:46:32.956Z,39.20
2023-03-08T23:49:12.167Z,38.70
2023-03-08T23:51:44.162Z,37.00
2023-03-08T23:54:20.319Z,38.10
2023-03-08T23:56:54.287Z,39.30
2023-03-08T23:59:39.916Z,42.20
